sensor_id;sensor_type;location;lat;lon;timestamp;pressure;altitude;pressure_sealevel;temperature;humidity
14242;BME280;7205;50.864;12.766;2022-11-15T00:01:49;97561.19;;;8.21;89.91
14242;BME280;7205;50.864;12.766;2022-11-15T00:04:34;97552.19;;;8.24;90.20
14242;BME280;7205;50.864;12.766;2022-11-15T00:11:14;97559.44;;;8.30;90.36
14242;BME280;7205;50.864;12.766;2022-11-15T00:13:59;97554.16;;;8.30;90.30
14242;BME280;7205;50.864;12.766;2022-11-15T00:16:46;97552.69;;;8.35;89.75
14242;BME280;7205;50.864;12.766;2022-11-15T00:19:32;97555.16;;;8.37;89.88
14242;BME280;7205;50.864;12.766;2022-11-15T00:22:17;97551.03;;;8.34;89.94
14242;BME280;7205;50.864;12.766;2022-11-15T00:25:03;97551.69;;;8.36;89.77
14242;BME280;7205;50.864;12.766;2022-11-15T00:27:50;97553.19;;;8.39;89.81
14242;BME280;7205;50.864;12.766;2022-11-15T00:30:36;97556.47;;;8.41;89.35
14242;BME280;7205;50.864;12.766;2022-11-15T00:37:07;97565.69;;;8.45;88.95
14242;BME280;7205;50.864;12.766;2022-11-15T00:42:34;97562.22;;;8.44;89.36
14242;BME280;7205;50.864;12.766;2022-11-15T00:45:42;97557.78;;;8.45;89.57
14242;BME280;7205;50.864;12.766;2022-11-15T00:48:28;97554.66;;;8.41;89.21
14242;BME280;7205;50.864;12.766;2022-11-15T00:51:15;97556.00;;;8.45;89.15
14242;BME280;7205;50.864;12.766;2022-11-15T00:54:01;97555.66;;;8.48;89.09
14242;BME280;7205;50.864;12.766;2022-11-15T00:56:46;97547.59;;;8.50;89.21
14242;BME280;7205;50.864;12.766;2022-11-15T00:59:32;97540.38;;;8.52;89.24
14242;BME280;7205;50.864;12.766;2022-11-15T01:02:19;97535.78;;;8.54;89.00
14242;BME280;7205;50.864;12.766;2022-11-15T01:05:05;97527.22;;;8.52;89.08
14242;BME280;7205;50.864;12.766;2022-11-15T01:07:51;97539.88;;;8.56;89.15
14242;BME280;7205;50.864;12.766;2022-11-15T01:10:37;97533.78;;;8.56;88.91
14242;BME280;7205;50.864;12.766;2022-11-15T01:13:22;97529.50;;;8.55;89.16
14242;BME280;7205;50.864;12.766;2022-11-15T01:16:09;97529.50;;;8.55;88.85
14242;BME280;7205;50.864;12.766;2022-11-15T01:18:56;97529.50;;;8.55;88.57
14242;BME280;7205;50.864;12.766;2022-11-15T01:21:42;97520.28;;;8.51;89.04
14242;BME280;7205;50.864;12.766;2022-11-15T01:24:27;97522.75;;;8.52;88.86
14242;BME280;7205;50.864;12.766;2022-11-15T01:27:13;97519.31;;;8.52;88.37
14242;BME280;7205;50.864;12.766;2022-11-15T01:29:58;97504.00;;;8.47;88.83
14242;BME280;7205;50.864;12.766;2022-11-15T01:32:44;97513.56;;;8.48;88.61
14242;BME280;7205;50.864;12.766;2022-11-15T01:35:31;97504.16;;;8.46;88.28
14242;BME280;7205;50.864;12.766;2022-11-15T01:38:17;97501.72;;;8.44;88.57
14242;BME280;7205;50.864;12.766;2022-11-15T01:41:03;97502.72;;;8.43;88.81
14242;BME280;7205;50.864;12.766;2022-11-15T01:43:51;97507.28;;;8.49;88.82
14242;BME280;7205;50.864;12.766;2022-11-15T01:46:37;97494.66;;;8.45;88.69
14242;BME280;7205;50.864;12.766;2022-11-15T01:49:24;97488.56;;;8.44;88.21
14242;BME280;7205;50.864;12.766;2022-11-15T01:52:17;97490.38;;;8.44;88.46
14242;BME280;7205;50.864;12.766;2022-11-15T01:55:08;97476.91;;;8.39;88.14
14242;BME280;7205;50.864;12.766;2022-11-15T01:57:58;97464.72;;;8.38;87.72
14242;BME280;7205;50.864;12.766;2022-11-15T02:00:45;97471.94;;;8.36;87.98
14242;BME280;7205;50.864;12.766;2022-11-15T02:03:35;97471.31;;;8.34;89.02
14242;BME280;7205;50.864;12.766;2022-11-15T02:06:23;97470.31;;;8.35;88.51
14242;BME280;7205;50.864;12.766;2022-11-15T02:09:10;97475.09;;;8.31;88.37
14242;BME280;7205;50.864;12.766;2022-11-15T02:11:56;97482.47;;;8.36;88.39
14242;BME280;7205;50.864;12.766;2022-11-15T02:14:48;97479.34;;;8.32;88.70
14242;BME280;7205;50.864;12.766;2022-11-15T02:17:48;97477.22;;;8.36;88.88
14242;BME280;7205;50.864;12.766;2022-11-15T02:20:42;97475.75;;;8.33;88.29
14242;BME280;7205;50.864;12.766;2022-11-15T02:30:24;97464.25;;;8.26;88.80
14242;BME280;7205;50.864;12.766;2022-11-15T02:33:20;97472.13;;;8.26;88.50
14242;BME280;7205;50.864;12.766;2022-11-15T02:36:15;97468.66;;;8.26;88.82
14242;BME280;7205;50.864;12.766;2022-11-15T02:39:07;97469.31;;;8.28;89.06
14242;BME280;7205;50.864;12.766;2022-11-15T02:42:00;97461.78;;;8.25;88.91
14242;BME280;7205;50.864;12.766;2022-11-15T02:44:47;97462.59;;;8.25;88.92
14242;BME280;7205;50.864;12.766;2022-11-15T02:47:39;97451.25;;;8.25;88.55
14242;BME280;7205;50.864;12.766;2022-11-15T02:50:29;97458.31;;;8.24;88.80
14242;BME280;7205;50.864;12.766;2022-11-15T02:53:15;97454.34;;;8.20;88.71
14242;BME280;7205;50.864;12.766;2022-11-15T02:56:01;97457.78;;;8.21;88.61
14242;BME280;7205;50.864;12.766;2022-11-15T02:58:58;97454.66;;;8.17;88.58
14242;BME280;7205;50.864;12.766;2022-11-15T03:02:00;97446.13;;;8.15;89.15
14242;BME280;7205;50.864;12.766;2022-11-15T03:04:54;97452.38;;;8.14;88.80
14242;BME280;7205;50.864;12.766;2022-11-15T03:07:46;97449.56;;;8.16;88.99
14242;BME280;7205;50.864;12.766;2022-11-15T03:10:44;97448.28;;;8.12;88.87
14242;BME280;7205;50.864;12.766;2022-11-15T03:13:36;97443.50;;;8.07;88.80
14242;BME280;7205;50.864;12.766;2022-11-15T03:16:27;97437.91;;;8.02;89.05
14242;BME280;7205;50.864;12.766;2022-11-15T03:19:19;97437.09;;;8.02;88.92
14242;BME280;7205;50.864;12.766;2022-11-15T03:22:12;97439.91;;;8.00;88.58
14242;BME280;7205;50.864;12.766;2022-11-15T03:25:04;97441.19;;;7.96;88.52
14242;BME280;7205;50.864;12.766;2022-11-15T03:27:52;97437.09;;;7.94;88.85
14242;BME280;7205;50.864;12.766;2022-11-15T03:30:39;97443.16;;;7.94;89.12
14242;BME280;7205;50.864;12.766;2022-11-15T03:33:27;97443.00;;;7.96;89.78
14242;BME280;7205;50.864;12.766;2022-11-15T03:36:14;97447.78;;;8.00;90.05
14242;BME280;7205;50.864;12.766;2022-11-15T03:39:05;97449.91;;;8.05;90.31
14242;BME280;7205;50.864;12.766;2022-11-15T03:41:59;97445.31;;;8.07;90.23
14242;BME280;7205;50.864;12.766;2022-11-15T03:44:52;97442.53;;;8.08;90.64
14242;BME280;7205;50.864;12.766;2022-11-15T03:47:42;97439.06;;;8.16;90.54
14242;BME280;7205;50.864;12.766;2022-11-15T03:50:28;97430.19;;;8.17;91.17
14242;BME280;7205;50.864;12.766;2022-11-15T03:53:14;97431.22;;;8.24;91.00
14242;BME280;7205;50.864;12.766;2022-11-15T03:56:01;97429.88;;;8.28;90.91
14242;BME280;7205;50.864;12.766;2022-11-15T03:58:46;97437.44;;;8.31;90.93
14242;BME280;7205;50.864;12.766;2022-11-15T04:01:31;97431.84;;;8.34;91.33
14242;BME280;7205;50.864;12.766;2022-11-15T04:04:17;97431.34;;;8.38;91.38
14242;BME280;7205;50.864;12.766;2022-11-15T04:07:02;97425.91;;;8.40;91.12
14242;BME280;7205;50.864;12.766;2022-11-15T04:09:47;97423.94;;;8.42;91.39
14242;BME280;7205;50.864;12.766;2022-11-15T04:12:50;97431.34;;;8.46;91.52
14242;BME280;7205;50.864;12.766;2022-11-15T04:15:36;97420.81;;;8.46;91.23
14242;BME280;7205;50.864;12.766;2022-11-15T04:18:21;97422.31;;;8.49;91.47
14242;BME280;7205;50.864;12.766;2022-11-15T04:21:08;97424.41;;;8.53;91.50
14242;BME280;7205;50.864;12.766;2022-11-15T04:24:11;97426.88;;;8.55;91.58
14242;BME280;7205;50.864;12.766;2022-11-15T04:26:59;97434.44;;;8.58;91.33
14242;BME280;7205;50.864;12.766;2022-11-15T04:29:46;97428.03;;;8.60;91.22
14242;BME280;7205;50.864;12.766;2022-11-15T04:32:32;97423.72;;;8.59;91.38
14242;BME280;7205;50.864;12.766;2022-11-15T04:35:18;97428.03;;;8.60;91.18
14242;BME280;7205;50.864;12.766;2022-11-15T04:38:06;97408.94;;;8.58;91.20
14242;BME280;7205;50.864;12.766;2022-11-15T04:40:52;97417.50;;;8.60;91.38
14242;BME280;7205;50.864;12.766;2022-11-15T04:43:37;97410.22;;;8.62;90.85
14242;BME280;7205;50.864;12.766;2022-11-15T04:46:25;97406.81;;;8.62;91.05
14242;BME280;7205;50.864;12.766;2022-11-15T04:49:10;97405.47;;;8.66;90.85
14242;BME280;7205;50.864;12.766;2022-11-15T04:51:56;97403.00;;;8.64;91.38
14242;BME280;7205;50.864;12.766;2022-11-15T04:54:41;97407.91;;;8.67;90.27
14242;BME280;7205;50.864;12.766;2022-11-15T04:57:27;97398.41;;;8.66;90.97
14242;BME280;7205;50.864;12.766;2022-11-15T05:00:15;97400.84;;;8.68;90.79
14242;BME280;7205;50.864;12.766;2022-11-15T05:03:02;97406.28;;;8.66;90.82
14242;BME280;7205;50.864;12.766;2022-11-15T05:06:06;97400.03;;;8.67;90.26
14242;BME280;7205;50.864;12.766;2022-11-15T05:08:53;97405.59;;;8.72;90.51
14242;BME280;7205;50.864;12.766;2022-11-15T05:11:39;97404.47;;;8.75;90.13
14242;BME280;7205;50.864;12.766;2022-11-15T05:14:24;97391.63;;;8.72;90.45
14242;BME280;7205;50.864;12.766;2022-11-15T05:17:10;97391.63;;;8.72;89.83
14242;BME280;7205;50.864;12.766;2022-11-15T05:19:56;97394.28;;;8.72;89.38
14242;BME280;7205;50.864;12.766;2022-11-15T05:22:42;97387.53;;;8.69;89.60
14242;BME280;7205;50.864;12.766;2022-11-15T05:25:28;97384.88;;;8.69;89.38
14242;BME280;7205;50.864;12.766;2022-11-15T05:28:13;97380.63;;;8.68;89.31
14242;BME280;7205;50.864;12.766;2022-11-15T05:31:00;97378.00;;;8.68;89.65
14242;BME280;7205;50.864;12.766;2022-11-15T05:33:46;97374.53;;;8.68;89.30
14242;BME280;7205;50.864;12.766;2022-11-15T05:36:35;97375.38;;;8.68;89.85
14242;BME280;7205;50.864;12.766;2022-11-15T05:39:21;97374.53;;;8.68;89.07
14242;BME280;7205;50.864;12.766;2022-11-15T05:42:09;97372.06;;;8.66;89.07
14242;BME280;7205;50.864;12.766;2022-11-15T05:44:56;97376.19;;;8.69;88.99
14242;BME280;7205;50.864;12.766;2022-11-15T05:47:43;97372.91;;;8.67;88.54
14242;BME280;7205;50.864;12.766;2022-11-15T05:50:29;97368.13;;;8.62;88.61
14242;BME280;7205;50.864;12.766;2022-11-15T05:53:19;97375.06;;;8.63;88.38
14242;BME280;7205;50.864;12.766;2022-11-15T05:56:06;97377.16;;;8.68;88.08
14242;BME280;7205;50.864;12.766;2022-11-15T05:58:55;97374.53;;;8.68;87.90
14242;BME280;7205;50.864;12.766;2022-11-15T06:01:42;97375.72;;;8.65;88.04
14242;BME280;7205;50.864;12.766;2022-11-15T06:04:27;97365.50;;;8.62;87.67
14242;BME280;7205;50.864;12.766;2022-11-15T06:07:13;97371.25;;;8.66;87.28
14242;BME280;7205;50.864;12.766;2022-11-15T06:09:59;97371.91;;;8.68;87.37
14242;BME280;7205;50.864;12.766;2022-11-15T06:12:45;97378.34;;;8.65;87.02
14242;BME280;7205;50.864;12.766;2022-11-15T06:15:32;97378.50;;;8.64;86.71
14242;BME280;7205;50.864;12.766;2022-11-15T06:18:17;97374.56;;;8.60;87.00
14242;BME280;7205;50.864;12.766;2022-11-15T06:21:03;97375.56;;;8.59;86.99
14242;BME280;7205;50.864;12.766;2022-11-15T06:23:48;97375.56;;;8.59;86.52
14242;BME280;7205;50.864;12.766;2022-11-15T06:26:35;97373.75;;;8.59;86.95
14242;BME280;7205;50.864;12.766;2022-11-15T06:29:21;97377.19;;;8.60;86.76
14242;BME280;7205;50.864;12.766;2022-11-15T06:32:06;97376.19;;;8.61;86.50
14242;BME280;7205;50.864;12.766;2022-11-15T06:34:52;97370.94;;;8.61;86.93
14242;BME280;7205;50.864;12.766;2022-11-15T06:37:37;97362.88;;;8.62;86.65
14242;BME280;7205;50.864;12.766;2022-11-15T06:40:22;97373.06;;;8.65;85.74
14242;BME280;7205;50.864;12.766;2022-11-15T06:43:09;97383.25;;;8.68;86.29
14242;BME280;7205;50.864;12.766;2022-11-15T06:45:54;97376.34;;;8.67;86.05
14242;BME280;7205;50.864;12.766;2022-11-15T06:48:40;97382.56;;;8.74;85.79
14242;BME280;7205;50.864;12.766;2022-11-15T06:51:25;97378.13;;;8.75;86.27
14242;BME280;7205;50.864;12.766;2022-11-15T06:54:10;97371.88;;;8.76;85.86
14242;BME280;7205;50.864;12.766;2022-11-15T06:56:55;97379.09;;;8.82;85.67
14242;BME280;7205;50.864;12.766;2022-11-15T06:59:42;97366.91;;;8.89;85.13
14242;BME280;7205;50.864;12.766;2022-11-15T07:02:28;97370.34;;;8.89;85.12
14242;BME280;7205;50.864;12.766;2022-11-15T07:05:15;97362.75;;;8.95;84.82
14242;BME280;7205;50.864;12.766;2022-11-15T07:08:01;97368.31;;;9.00;84.84
14242;BME280;7205;50.864;12.766;2022-11-15T07:10:46;97373.53;;;9.08;85.07
14242;BME280;7205;50.864;12.766;2022-11-15T07:13:33;97376.47;;;9.13;84.84
14242;BME280;7205;50.864;12.766;2022-11-15T07:16:21;97376.63;;;9.19;84.02
14242;BME280;7205;50.864;12.766;2022-11-15T07:19:08;97384.66;;;9.26;84.31
14242;BME280;7205;50.864;12.766;2022-11-15T07:21:54;97383.13;;;9.31;84.20
14242;BME280;7205;50.864;12.766;2022-11-15T07:24:39;97378.34;;;9.35;83.39
14242;BME280;7205;50.864;12.766;2022-11-15T07:27:25;97379.75;;;9.45;83.58
14242;BME280;7205;50.864;12.766;2022-11-15T07:30:11;97376.59;;;9.50;82.77
14242;BME280;7205;50.864;12.766;2022-11-15T07:33:00;97371.63;;;9.55;82.39
14242;BME280;7205;50.864;12.766;2022-11-15T07:35:46;97374.03;;;9.64;82.18
14242;BME280;7205;50.864;12.766;2022-11-15T07:38:34;97374.16;;;9.71;82.44
14242;BME280;7205;50.864;12.766;2022-11-15T07:41:19;97370.16;;;9.75;81.68
14242;BME280;7205;50.864;12.766;2022-11-15T07:44:05;97371.28;;;9.80;81.56
14242;BME280;7205;50.864;12.766;2022-11-15T07:46:50;97363.47;;;9.87;80.70
14242;BME280;7205;50.864;12.766;2022-11-15T07:49:37;97371.50;;;9.93;81.09
14242;BME280;7205;50.864;12.766;2022-11-15T07:52:23;97375.41;;;9.97;80.83
14242;BME280;7205;50.864;12.766;2022-11-15T07:55:08;97374.50;;;10.05;80.64
14242;BME280;7205;50.864;12.766;2022-11-15T07:58:00;97371.22;;;10.11;80.23
14242;BME280;7205;50.864;12.766;2022-11-15T08:00:45;97381.69;;;10.19;79.42
14242;BME280;7205;50.864;12.766;2022-11-15T08:03:31;97364.66;;;10.22;79.69
14242;BME280;7205;50.864;12.766;2022-11-15T08:06:18;97369.06;;;10.29;79.14
14242;BME280;7205;50.864;12.766;2022-11-15T08:09:03;97365.69;;;10.35;78.65
14242;BME280;7205;50.864;12.766;2022-11-15T08:11:49;97368.28;;;10.43;78.01
14242;BME280;7205;50.864;12.766;2022-11-15T08:14:34;97369.16;;;10.50;77.96
14242;BME280;7205;50.864;12.766;2022-11-15T08:17:20;97364.97;;;10.56;77.75
14242;BME280;7205;50.864;12.766;2022-11-15T08:20:07;97370.34;;;10.62;77.90
14242;BME280;7205;50.864;12.766;2022-11-15T08:22:54;97356.16;;;10.63;77.50
14242;BME280;7205;50.864;12.766;2022-11-15T08:25:40;97368.06;;;10.74;76.84
14242;BME280;7205;50.864;12.766;2022-11-15T08:28:25;97368.16;;;10.80;76.87
14242;BME280;7205;50.864;12.766;2022-11-15T08:31:14;97367.63;;;10.85;76.75
14242;BME280;7205;50.864;12.766;2022-11-15T08:34:00;97351.59;;;10.86;76.00
14242;BME280;7205;50.864;12.766;2022-11-15T08:36:46;97345.56;;;10.92;75.26
14242;BME280;7205;50.864;12.766;2022-11-15T08:39:33;97347.50;;;10.98;75.01
14242;BME280;7205;50.864;12.766;2022-11-15T08:42:18;97347.91;;;11.02;75.00
14242;BME280;7205;50.864;12.766;2022-11-15T08:45:04;97348.81;;;11.09;74.33
14242;BME280;7205;50.864;12.766;2022-11-15T08:47:50;97341.16;;;11.14;74.47
14242;BME280;7205;50.864;12.766;2022-11-15T08:50:35;97336.13;;;11.19;73.95
14242;BME280;7205;50.864;12.766;2022-11-15T08:53:44;97333.56;;;11.25;74.00
14242;BME280;7205;50.864;12.766;2022-11-15T08:56:31;97332.81;;;11.31;73.11
14242;BME280;7205;50.864;12.766;2022-11-15T08:59:17;97324.97;;;11.38;72.86
14242;BME280;7205;50.864;12.766;2022-11-15T09:02:02;97323.41;;;11.44;72.97
14242;BME280;7205;50.864;12.766;2022-11-15T09:04:49;97327.34;;;11.54;72.29
14242;BME280;7205;50.864;12.766;2022-11-15T09:07:35;97320.88;;;11.57;72.52
14242;BME280;7205;50.864;12.766;2022-11-15T09:10:21;97318.28;;;11.63;71.95
14242;BME280;7205;50.864;12.766;2022-11-15T09:13:08;97314.28;;;11.67;72.27
14242;BME280;7205;50.864;12.766;2022-11-15T09:16:03;97319.25;;;11.77;71.83
14242;BME280;7205;50.864;12.766;2022-11-15T09:18:50;97313.00;;;11.84;71.70
14242;BME280;7205;50.864;12.766;2022-11-15T09:21:35;97304.50;;;11.89;71.23
14242;BME280;7205;50.864;12.766;2022-11-15T09:24:21;97310.47;;;11.97;71.04
14242;BME280;7205;50.864;12.766;2022-11-15T09:27:07;97309.50;;;12.05;71.00
14242;BME280;7205;50.864;12.766;2022-11-15T09:29:54;97301.63;;;12.11;70.86
14242;BME280;7205;50.864;12.766;2022-11-15T09:32:39;97301.03;;;12.16;70.49
14242;BME280;7205;50.864;12.766;2022-11-15T09:35:25;97304.34;;;12.24;70.37
14242;BME280;7205;50.864;12.766;2022-11-15T09:38:11;97297.88;;;12.27;69.76
14242;BME280;7205;50.864;12.766;2022-11-15T09:41:13;97301.38;;;12.34;69.73
14242;BME280;7205;50.864;12.766;2022-11-15T09:44:25;97299.56;;;12.41;69.53
14242;BME280;7205;50.864;12.766;2022-11-15T09:47:38;97291.06;;;12.45;69.45
14242;BME280;7205;50.864;12.766;2022-11-15T09:50:33;97298.00;;;12.53;69.51
14242;BME280;7205;50.864;12.766;2022-11-15T09:53:00;97295.59;;;12.58;69.48
14242;BME280;7205;50.864;12.766;2022-11-15T09:55:34;97287.88;;;12.63;69.20
14242;BME280;7205;50.864;12.766;2022-11-15T09:58:15;97290.56;;;12.70;68.77
14242;BME280;7205;50.864;12.766;2022-11-15T10:00:47;97277.53;;;12.75;68.66
14242;BME280;7205;50.864;12.766;2022-11-15T10:03:25;97280.22;;;12.81;68.38
14242;BME280;7205;50.864;12.766;2022-11-15T10:05:56;97275.56;;;12.90;68.14
14242;BME280;7205;50.864;12.766;2022-11-15T10:08:47;97269.25;;;12.91;67.48
14242;BME280;7205;50.864;12.766;2022-11-15T10:11:20;97273.75;;;12.97;67.14
14242;BME280;7205;50.864;12.766;2022-11-15T10:13:48;97278.91;;;13.05;66.85
14242;BME280;7205;50.864;12.766;2022-11-15T10:19:29;97264.88;;;13.17;66.55
14242;BME280;7205;50.864;12.766;2022-11-15T10:22:12;97262.44;;;13.22;66.32
14242;BME280;7205;50.864;12.766;2022-11-15T10:24:44;97248.16;;;13.23;65.77
14242;BME280;7205;50.864;12.766;2022-11-15T10:27:13;97246.13;;;13.32;65.47
14242;BME280;7205;50.864;12.766;2022-11-15T10:29:46;97251.84;;;13.35;64.93
14242;BME280;7205;50.864;12.766;2022-11-15T10:32:16;97249.22;;;13.42;64.59
14242;BME280;7205;50.864;12.766;2022-11-15T10:34:45;97253.50;;;13.49;64.43
14242;BME280;7205;50.864;12.766;2022-11-15T10:37:11;97244.13;;;13.53;64.17
14242;BME280;7205;50.864;12.766;2022-11-15T10:39:38;97233.28;;;13.55;63.85
14242;BME280;7205;50.864;12.766;2022-11-15T10:42:16;97223.31;;;13.57;63.45
14242;BME280;7205;50.864;12.766;2022-11-15T10:44:44;97224.75;;;13.66;63.38
14242;BME280;7205;50.864;12.766;2022-11-15T10:47:23;97228.59;;;13.70;63.09
14242;BME280;7205;50.864;12.766;2022-11-15T10:50:01;97217.19;;;13.69;62.93
14242;BME280;7205;50.864;12.766;2022-11-15T10:52:30;97215.75;;;13.73;62.88
14242;BME280;7205;50.864;12.766;2022-11-15T10:55:02;97215.31;;;13.76;62.65
14242;BME280;7205;50.864;12.766;2022-11-15T10:57:32;97219.44;;;13.79;62.48
14242;BME280;7205;50.864;12.766;2022-11-15T11:00:06;97213.69;;;13.82;62.66
14242;BME280;7205;50.864;12.766;2022-11-15T11:02:35;97210.41;;;13.86;62.53
14242;BME280;7205;50.864;12.766;2022-11-15T11:05:20;97198.81;;;13.88;62.31
14242;BME280;7205;50.864;12.766;2022-11-15T11:07:56;97203.28;;;13.94;62.20
14242;BME280;7205;50.864;12.766;2022-11-15T11:10:24;97198.38;;;13.97;61.79
14242;BME280;7205;50.864;12.766;2022-11-15T11:12:50;97196.31;;;13.99;61.41
14242;BME280;7205;50.864;12.766;2022-11-15T11:15:18;97194.69;;;14.05;61.36
14242;BME280;7205;50.864;12.766;2022-11-15T11:17:57;97196.50;;;14.11;61.37
14242;BME280;7205;50.864;12.766;2022-11-15T11:20:30;97184.84;;;14.12;61.17
14242;BME280;7205;50.864;12.766;2022-11-15T11:23:21;97184.47;;;14.15;61.12
14242;BME280;7205;50.864;12.766;2022-11-15T11:25:56;97182.00;;;14.20;61.23
14242;BME280;7205;50.864;12.766;2022-11-15T11:28:39;97179.91;;;14.22;61.37
14242;BME280;7205;50.864;12.766;2022-11-15T11:31:20;97174.44;;;14.23;61.71
14242;BME280;7205;50.864;12.766;2022-11-15T11:33:54;97165.63;;;14.29;61.96
14242;BME280;7205;50.864;12.766;2022-11-15T11:36:32;97168.06;;;14.37;62.24
14242;BME280;7205;50.864;12.766;2022-11-15T11:39:19;97163.56;;;14.38;62.38
14242;BME280;7205;50.864;12.766;2022-11-15T11:41:55;97167.63;;;14.40;61.96
14242;BME280;7205;50.864;12.766;2022-11-15T11:44:34;97166.81;;;14.46;62.21
14242;BME280;7205;50.864;12.766;2022-11-15T11:47:07;97152.69;;;14.46;62.14
14242;BME280;7205;50.864;12.766;2022-11-15T11:49:42;97157.59;;;14.49;61.89
14242;BME280;7205;50.864;12.766;2022-11-15T11:52:16;97149.41;;;14.50;61.85
14242;BME280;7205;50.864;12.766;2022-11-15T11:54:55;97143.88;;;14.52;61.63
14242;BME280;7205;50.864;12.766;2022-11-15T11:57:33;97149.56;;;14.55;61.79
14242;BME280;7205;50.864;12.766;2022-11-15T12:00:04;97141.38;;;14.57;61.54
14242;BME280;7205;50.864;12.766;2022-11-15T12:02:41;97143.44;;;14.61;61.38
14242;BME280;7205;50.864;12.766;2022-11-15T12:05:13;97136.69;;;14.59;60.96
14242;BME280;7205;50.864;12.766;2022-11-15T12:07:44;97129.31;;;14.61;60.89
14242;BME280;7205;50.864;12.766;2022-11-15T12:10:22;97135.47;;;14.61;60.67
14242;BME280;7205;50.864;12.766;2022-11-15T12:12:54;97128.88;;;14.64;60.21
14242;BME280;7205;50.864;12.766;2022-11-15T12:15:24;97118.47;;;14.62;59.94
14242;BME280;7205;50.864;12.766;2022-11-15T12:17:54;97125.63;;;14.68;59.51
14242;BME280;7205;50.864;12.766;2022-11-15T12:20:23;97113.72;;;14.71;59.34
14242;BME280;7205;50.864;12.766;2022-11-15T12:22:56;97114.94;;;14.75;59.16
14242;BME280;7205;50.864;12.766;2022-11-15T12:25:29;97107.94;;;14.80;58.90
14242;BME280;7205;50.864;12.766;2022-11-15T12:28:01;97098.34;;;14.79;58.76
14242;BME280;7205;50.864;12.766;2022-11-15T12:30:43;97105.88;;;14.82;58.85
14242;BME280;7205;50.864;12.766;2022-11-15T12:33:29;97101.16;;;14.84;58.39
14242;BME280;7205;50.864;12.766;2022-11-15T12:35:58;97099.91;;;14.87;58.43
14242;BME280;7205;50.864;12.766;2022-11-15T12:41:27;97096.84;;;14.90;58.33
14242;BME280;7205;50.864;12.766;2022-11-15T12:43:56;97093.38;;;14.89;58.05
14242;BME280;7205;50.864;12.766;2022-11-15T12:49:42;97073.13;;;14.88;58.36
14242;BME280;7205;50.864;12.766;2022-11-15T12:52:10;97074.75;;;14.89;58.02
14242;BME280;7205;50.864;12.766;2022-11-15T12:55:00;97075.56;;;14.90;58.29
14242;BME280;7205;50.864;12.766;2022-11-15T12:57:41;97075.75;;;14.95;58.35
14242;BME280;7205;50.864;12.766;2022-11-15T13:00:49;97072.47;;;14.93;58.10
14242;BME280;7205;50.864;12.766;2022-11-15T13:03:27;97072.03;;;14.96;58.02
14242;BME280;7205;50.864;12.766;2022-11-15T13:06:08;97066.50;;;14.97;57.67
14242;BME280;7205;50.864;12.766;2022-11-15T13:08:42;97070.59;;;15.00;57.58
14242;BME280;7205;50.864;12.766;2022-11-15T13:11:52;97066.50;;;14.97;57.40
14242;BME280;7205;50.864;12.766;2022-11-15T13:14:49;97070.22;;;14.96;57.09
14242;BME280;7205;50.864;12.766;2022-11-15T13:17:24;97067.53;;;14.96;57.29
14242;BME280;7205;50.864;12.766;2022-11-15T13:19:55;97054.09;;;14.91;57.25
14242;BME280;7205;50.864;12.766;2022-11-15T13:22:24;97053.44;;;14.96;57.20
14242;BME280;7205;50.864;12.766;2022-11-15T13:25:15;97057.34;;;14.93;56.88
14242;BME280;7205;50.864;12.766;2022-11-15T13:28:18;97054.09;;;14.91;57.04
14242;BME280;7205;50.864;12.766;2022-11-15T13:30:52;97059.63;;;14.90;56.87
14242;BME280;7205;50.864;12.766;2022-11-15T13:33:22;97056.75;;;14.91;56.82
14242;BME280;7205;50.864;12.766;2022-11-15T13:35:52;97049.00;;;14.90;56.96
14242;BME280;7205;50.864;12.766;2022-11-15T13:38:27;97054.88;;;14.92;56.64
14242;BME280;7205;50.864;12.766;2022-11-15T13:40:54;97054.53;;;14.88;56.32
14242;BME280;7205;50.864;12.766;2022-11-15T13:43:33;97060.63;;;14.89;56.41
14242;BME280;7205;50.864;12.766;2022-11-15T13:46:21;97057.38;;;14.87;56.22
14242;BME280;7205;50.864;12.766;2022-11-15T13:48:53;97050.00;;;14.89;56.80
14242;BME280;7205;50.864;12.766;2022-11-15T13:51:26;97050.66;;;14.84;56.79
14242;BME280;7205;50.864;12.766;2022-11-15T13:53:56;97054.56;;;14.82;56.60
14242;BME280;7205;50.864;12.766;2022-11-15T13:56:26;97043.75;;;14.77;56.44
14242;BME280;7205;50.864;12.766;2022-11-15T13:58:54;97048.50;;;14.75;56.46
14242;BME280;7205;50.864;12.766;2022-11-15T14:01:23;97039.31;;;14.71;56.83
14242;BME280;7205;50.864;12.766;2022-11-15T14:03:56;97036.25;;;14.67;56.88
14242;BME280;7205;50.864;12.766;2022-11-15T14:06:25;97053.66;;;14.70;56.60
14242;BME280;7205;50.864;12.766;2022-11-15T14:09:02;97043.63;;;14.65;56.94
14242;BME280;7205;50.864;12.766;2022-11-15T14:11:30;97029.38;;;14.60;56.99
14242;BME280;7205;50.864;12.766;2022-11-15T14:14:10;97037.56;;;14.58;57.06
14242;BME280;7205;50.864;12.766;2022-11-15T14:16:41;97039.03;;;14.54;57.51
14242;BME280;7205;50.864;12.766;2022-11-15T14:19:11;97034.16;;;14.51;57.38
14242;BME280;7205;50.864;12.766;2022-11-15T14:22:16;97030.72;;;14.44;57.50
14242;BME280;7205;50.864;12.766;2022-11-15T14:24:47;97028.91;;;14.38;57.71
14242;BME280;7205;50.864;12.766;2022-11-15T14:27:19;97027.72;;;14.34;57.69
14242;BME280;7205;50.864;12.766;2022-11-15T14:29:46;97020.59;;;14.28;58.09
14242;BME280;7205;50.864;12.766;2022-11-15T14:32:17;97021.19;;;14.24;58.45
14242;BME280;7205;50.864;12.766;2022-11-15T14:34:45;97016.53;;;14.19;58.46
14242;BME280;7205;50.864;12.766;2022-11-15T14:37:22;97014.34;;;14.10;58.54
14242;BME280;7205;50.864;12.766;2022-11-15T14:39:50;97014.97;;;14.05;58.63
14242;BME280;7205;50.864;12.766;2022-11-15T14:42:18;97005.63;;;13.96;58.80
14242;BME280;7205;50.864;12.766;2022-11-15T14:44:46;97004.22;;;13.87;59.34
14242;BME280;7205;50.864;12.766;2022-11-15T14:47:14;97000.97;;;13.85;59.44
14242;BME280;7205;50.864;12.766;2022-11-15T14:49:42;97006.09;;;13.80;59.76
14242;BME280;7205;50.864;12.766;2022-11-15T14:52:24;96999.41;;;13.71;59.82
14242;BME280;7205;50.864;12.766;2022-11-15T14:54:53;96998.84;;;13.62;60.54
14242;BME280;7205;50.864;12.766;2022-11-15T14:57:23;97002.13;;;13.58;60.87